Time;durP1;ratioP1;P1;durP2;ratioP2;P2;SDS_P1;SDS_P2;PMS_P1;PMS_P2;Temp;Humidity;BMP_temperature;BMP_pressure;BME280_temperature;BME280_humidity;BME280_pressure;Samples;Min_cycle;Max_cycle;Signal;HPM_P1;HPM_P2
2021/12/05 00:19:01;;;;;;;41.58;21.25;;;;;;;2.97;54.95;98797.31;4918268;29;20066;-72
2021/12/05 00:21:40;;;;;;;41.45;21.38;;;;;;;3.01;54.86;98788.38;4920453;29;20059;-71
2021/12/05 00:24:11;;;;;;;42.58;22.00;;;;;;;3.05;54.87;98792.44;4918741;29;20505;-71
2021/12/05 00:26:41;;;;;;;37.97;22.13;;;;;;;3.09;54.97;98787.84;4919734;29;20052;-72
2021/12/05 00:29:19;;;;;;;38.42;20.55;;;;;;;3.11;54.63;98799.84;4920333;29;20055;-71
2021/12/05 00:31:58;;;;;;;41.90;22.65;;;;;;;3.12;54.68;98801.53;4930435;28;20059;-71
2021/12/05 00:46:16;;;;;;;45.13;24.23;;;;;;;3.25;54.70;98818.06;4938242;29;20052;-72
2021/12/05 01:00:12;;;;;;;48.20;22.58;;;;;;;3.35;54.61;98827.88;4975347;28;20058;-71
2021/12/05 01:02:48;;;;;;;44.92;23.65;;;;;;;3.39;54.61;98826.78;4976916;28;20049;-70
2021/12/05 01:05:37;;;;;;;45.53;22.17;;;;;;;3.40;54.62;98820.59;4965187;28;20057;-71
2021/12/05 01:08:38;;;;;;;45.67;23.88;;;;;;;3.37;54.52;98816.44;4963670;28;20121;-71
2021/12/05 01:11:21;;;;;;;46.58;21.60;;;;;;;3.38;54.62;98814.66;4965466;28;20057;-72
2021/12/05 01:14:02;;;;;;;45.47;27.60;;;;;;;3.36;54.64;98822.56;4963611;28;20050;-70
2021/12/05 01:16:31;;;;;;;40.97;24.13;;;;;;;3.42;54.81;98813.50;4964164;28;20604;-72
2021/12/05 01:18:59;;;;;;;48.67;23.90;;;;;;;3.44;54.50;98809.03;4964974;28;20129;-73
2021/12/05 01:21:27;;;;;;;41.28;22.58;;;;;;;3.39;54.81;98814.53;4973274;28;20042;-73
2021/12/05 01:24:00;;;;;;;42.88;23.27;;;;;;;3.30;55.04;98804.72;5023339;28;20129;-71
2021/12/05 01:26:32;;;;;;;47.83;21.67;;;;;;;3.20;54.95;98796.63;5023773;28;20045;-70
2021/12/05 01:29:21;;;;;;;39.63;21.75;;;;;;;3.08;55.14;98799.22;5022437;28;20530;-72
2021/12/05 01:32:05;;;;;;;40.92;20.70;;;;;;;2.97;55.26;98802.53;5023536;28;20056;-72
2021/12/05 01:34:43;;;;;;;51.88;25.38;;;;;;;2.86;55.43;98801.47;5063804;28;20479;-72
2021/12/05 01:37:21;;;;;;;47.08;25.25;;;;;;;2.83;55.59;98796.44;5084249;28;20055;-71
2021/12/05 01:40:02;;;;;;;35.13;20.88;;;;;;;2.84;55.64;98803.31;5086875;28;20052;-72
2021/12/05 01:51:30;;;;;;;41.20;23.00;;;;;;;3.06;55.28;98799.31;5085695;28;20048;-72
2021/12/05 01:54:20;;;;;;;42.35;18.67;;;;;;;3.08;55.09;98799.22;5085868;28;20071;-72
2021/12/05 01:57:23;;;;;;;42.63;23.30;;;;;;;3.12;55.15;98795.50;5086120;28;20066;-71
2021/12/05 02:00:06;;;;;;;42.15;21.55;;;;;;;3.18;54.97;98795.91;5086325;28;20056;-72
2021/12/05 02:31:02;;;;;;;40.17;22.88;;;;;;;3.02;55.57;98766.53;4869873;29;20133;-71
2021/12/05 02:39:20;;;;;;;42.83;23.23;;;;;;;2.94;55.73;98771.44;4864379;29;20052;-74
2021/12/05 02:41:50;;;;;;;40.20;23.08;;;;;;;2.96;55.66;98777.38;4923297;29;20047;-73
2021/12/05 02:44:21;;;;;;;35.42;20.85;;;;;;;3.01;55.74;98783.16;4945108;29;20471;-72
2021/12/05 02:46:53;;;;;;;48.17;23.88;;;;;;;3.08;55.51;98783.56;4943684;29;20047;-71
2021/12/05 02:49:20;;;;;;;44.80;25.33;;;;;;;3.12;55.67;98778.06;4944829;29;20051;-72
2021/12/05 02:51:53;;;;;;;40.60;23.38;;;;;;;3.12;55.60;98780.66;4987733;28;20133;-71
2021/12/05 02:54:24;;;;;;;38.65;20.95;;;;;;;3.12;55.75;98780.66;5001644;28;20072;-72
2021/12/05 02:56:52;;;;;;;48.47;24.45;;;;;;;3.09;55.74;98778.25;5054849;28;20552;-71
2021/12/05 02:59:25;;;;;;;40.70;20.42;;;;;;;3.13;55.77;98771.06;5085853;28;20466;-71
2021/12/05 03:01:58;;;;;;;37.47;19.20;;;;;;;3.14;55.54;98781.41;5085139;28;20132;-71
2021/12/05 03:04:29;;;;;;;44.83;23.02;;;;;;;3.15;55.61;98785.69;5085609;28;20127;-71
2021/12/05 03:06:56;;;;;;;51.78;25.38;;;;;;;3.20;55.80;98780.97;5083348;28;20044;-72
2021/12/05 03:09:25;;;;;;;39.65;21.45;;;;;;;3.23;55.54;98774.75;5085338;28;20119;-71
2021/12/05 03:11:53;;;;;;;41.13;22.35;;;;;;;3.23;55.42;98777.34;5084687;28;20054;-73
2021/12/05 03:14:20;;;;;;;46.50;22.83;;;;;;;3.21;55.79;98780.06;5084946;28;20050;-71
2021/12/05 03:16:48;;;;;;;49.20;29.92;;;;;;;3.24;55.72;98774.66;5085441;28;20055;-71
2021/12/05 03:19:16;;;;;;;53.50;24.48;;;;;;;3.28;55.83;98770.06;5085512;28;20044;-74
2021/12/05 03:21:44;;;;;;;50.22;25.30;;;;;;;3.32;55.86;98776.75;5085067;28;20078;-72
2021/12/05 03:24:13;;;;;;;48.95;25.65;;;;;;;3.32;55.72;98771.53;5084600;28;20044;-71
2021/12/05 03:26:45;;;;;;;47.30;25.92;;;;;;;3.34;55.75;98784.47;5084596;28;20051;-72
2021/12/05 03:29:13;;;;;;;44.78;22.67;;;;;;;3.34;55.86;98787.09;5085100;28;20054;-72
2021/12/05 03:31:41;;;;;;;47.85;23.88;;;;;;;3.40;55.78;98781.44;5085509;28;20135;-71
2021/12/05 03:34:11;;;;;;;38.42;21.15;;;;;;;3.41;55.60;98783.13;5085028;28;20422;-72
2021/12/05 03:36:40;;;;;;;39.95;21.65;;;;;;;3.41;55.76;98788.34;5083460;28;20102;-70
2021/12/05 03:39:09;;;;;;;36.25;19.83;;;;;;;3.37;55.88;98785.09;5085760;28;20048;-72
2021/12/05 03:41:37;;;;;;;40.33;21.92;;;;;;;3.39;55.86;98787.63;5085344;28;20044;-73
2021/12/05 03:44:07;;;;;;;44.22;23.83;;;;;;;3.41;55.96;98777.91;5084637;28;20051;-70
2021/12/05 03:46:35;;;;;;;41.00;19.85;;;;;;;3.38;55.65;98783.31;5084832;28;20044;-72
2021/12/05 03:49:05;;;;;;;46.67;26.77;;;;;;;3.37;55.81;98779.06;5084778;28;20051;-72
2021/12/05 03:51:37;;;;;;;45.33;23.65;;;;;;;3.37;55.89;98782.50;5083461;28;20607;-71
2021/12/05 03:54:05;;;;;;;41.55;22.92;;;;;;;3.38;55.92;98783.31;5084291;28;20054;-72
2021/12/05 03:56:34;;;;;;;47.35;24.33;;;;;;;3.40;56.03;98791.88;5084664;28;20124;-73
2021/12/05 03:59:02;;;;;;;47.22;24.17;;;;;;;3.38;55.89;98791.16;5084180;28;20044;-72
2021/12/05 04:01:31;;;;;;;44.63;23.77;;;;;;;3.42;55.76;98792.63;5085332;28;20040;-72
2021/12/05 04:03:58;;;;;;;37.40;19.80;;;;;;;3.40;55.98;98787.53;5085381;28;20076;-72
2021/12/05 04:06:27;;;;;;;45.53;25.77;;;;;;;3.38;56.02;98796.38;5082747;28;20044;-72
2021/12/05 04:08:55;;;;;;;36.53;19.98;;;;;;;3.38;55.87;98791.16;5084794;28;20046;-74
2021/12/05 04:11:29;;;;;;;40.40;21.25;;;;;;;3.36;56.08;98787.81;5084734;28;20048;-71
2021/12/05 04:13:56;;;;;;;31.60;18.10;;;;;;;3.36;55.88;98790.41;5083982;28;20044;-72
2021/12/05 04:16:25;;;;;;;39.08;20.88;;;;;;;3.36;55.93;98785.22;5085086;28;20051;-70
2021/12/05 04:18:53;;;;;;;31.30;18.63;;;;;;;3.36;56.01;98786.03;5084996;28;20067;-72
2021/12/05 04:21:21;;;;;;;37.20;17.80;;;;;;;3.35;55.90;98784.38;5084340;28;20044;-70
2021/12/05 04:23:48;;;;;;;32.75;19.48;;;;;;;3.35;56.05;98796.56;5084538;28;20342;-72
2021/12/05 04:26:16;;;;;;;37.13;20.65;;;;;;;3.35;56.07;98797.44;5084526;28;20054;-72
2021/12/05 04:28:44;;;;;;;41.17;19.88;;;;;;;3.37;55.71;98794.72;5084814;28;20044;-72
2021/12/05 04:31:11;;;;;;;35.47;18.33;;;;;;;3.37;55.72;98789.50;5084128;28;20044;-72
2021/12/05 04:33:39;;;;;;;35.15;18.50;;;;;;;3.36;55.73;98799.09;5084491;28;20629;-71
2021/12/05 04:36:09;;;;;;;35.97;20.45;;;;;;;3.36;55.70;98798.25;5083238;28;20044;-73
2021/12/05 04:38:36;;;;;;;35.53;17.98;;;;;;;3.34;55.92;98793.13;5086492;28;20046;-73
2021/12/05 04:41:03;;;;;;;40.40;19.48;;;;;;;3.33;55.76;98790.63;5089647;28;20044;-69
2021/12/05 04:43:36;;;;;;;32.50;18.60;;;;;;;3.32;55.77;98796.78;5089799;28;20058;-71
2021/12/05 04:46:03;;;;;;;35.92;19.30;;;;;;;3.35;55.77;98807.00;5089814;28;20067;-71
2021/12/05 04:48:30;;;;;;;32.33;18.90;;;;;;;3.39;55.56;98800.66;5087654;28;20096;-72
2021/12/05 04:50:57;;;;;;;37.88;19.02;;;;;;;3.40;55.62;98799.72;5087432;28;20128;-71
2021/12/05 04:53:28;;;;;;;31.75;17.48;;;;;;;3.44;55.63;98799.41;5088557;28;20207;-73
2021/12/05 04:55:56;;;;;;;40.03;18.17;;;;;;;3.47;55.55;98794.94;5088311;28;20040;-71
2021/12/05 04:58:23;;;;;;;34.13;17.02;;;;;;;3.47;55.34;98793.16;5088984;28;20076;-72
2021/12/05 05:00:51;;;;;;;28.20;18.77;;;;;;;3.40;55.56;98784.06;5088227;28;20066;-72
2021/12/05 05:03:18;;;;;;;26.88;14.00;;;;;;;3.35;55.53;98786.13;5087812;28;20083;-71
2021/12/05 05:05:50;;;;;;;37.20;19.67;;;;;;;3.31;55.64;98792.50;5086099;28;20217;-69
2021/12/05 05:08:19;;;;;;;33.33;18.52;;;;;;;3.27;55.59;98793.66;5088798;28;20048;-71
2021/12/05 05:10:48;;;;;;;39.47;21.70;;;;;;;3.27;55.77;98791.03;5088381;28;20044;-71
2021/12/05 05:13:15;;;;;;;34.20;17.45;;;;;;;3.25;55.74;98797.19;5088211;28;20116;-71
2021/12/05 05:15:42;;;;;;;38.25;18.27;;;;;;;3.23;55.72;98796.44;5088019;28;20048;-72
2021/12/05 05:18:10;;;;;;;34.97;19.40;;;;;;;3.19;55.81;98800.19;5087872;28;20043;-72
2021/12/05 05:20:39;;;;;;;36.15;20.55;;;;;;;3.16;55.81;98807.38;5087601;28;20123;-72
2021/12/05 05:28:54;;;;;;;34.42;17.77;;;;;;;3.11;55.84;98802.47;5064286;28;20392;-73
2021/12/05 05:48:36;;;;;;;37.50;21.05;;;;;;;2.94;55.67;98814.00;5059482;28;20102;-70
2021/12/05 05:51:06;;;;;;;32.53;15.95;;;;;;;2.91;55.74;98797.72;5059219;28;20048;-70
2021/12/05 05:53:33;;;;;;;30.45;16.35;;;;;;;2.87;55.97;98807.50;5058708;28;20640;-70
2021/12/05 05:56:00;;;;;;;30.67;16.95;;;;;;;2.80;55.80;98798.41;5058918;28;20045;-71
2021/12/05 05:58:38;;;;;;;34.72;17.90;;;;;;;2.76;56.12;98804.75;5058310;28;20040;-73
2021/12/05 06:01:14;;;;;;;40.22;24.90;;;;;;;2.67;56.33;98811.38;5058624;28;20142;-74
2021/12/05 06:03:41;;;;;;;24.90;13.10;;;;;;;2.66;56.29;98815.72;5058434;28;20524;-72
2021/12/05 06:06:10;;;;;;;23.92;14.10;;;;;;;2.63;56.29;98821.16;5057095;28;20045;-73
2021/12/05 06:08:39;;;;;;;26.75;15.68;;;;;;;2.61;56.16;98811.75;5061068;28;20075;-74
2021/12/05 06:11:09;;;;;;;28.02;16.92;;;;;;;2.60;56.11;98817.91;5068079;28;20100;-74
2021/12/05 06:13:39;;;;;;;37.58;21.25;;;;;;;2.60;56.28;98821.34;5060842;28;20072;-72
2021/12/05 06:16:07;;;;;;;30.98;18.25;;;;;;;2.59;56.41;98811.00;5062829;28;20117;-76
2021/12/05 06:18:34;;;;;;;28.48;16.75;;;;;;;2.60;56.38;98816.13;5060578;28;20049;-73
2021/12/05 06:21:01;;;;;;;36.42;17.38;;;;;;;2.62;56.40;98821.25;5058449;28;20049;-72
2021/12/05 06:23:28;;;;;;;38.25;20.15;;;;;;;2.61;56.42;98823.03;5079472;28;20183;-73
2021/12/05 06:25:55;;;;;;;35.72;18.08;;;;;;;2.66;56.33;98825.34;5081550;28;20071;-72
2021/12/05 06:28:30;;;;;;;32.10;16.92;;;;;;;2.65;56.45;98828.88;5079457;28;20084;-73
2021/12/05 06:31:07;;;;;;;34.33;17.67;;;;;;;2.68;56.36;98841.72;5080839;28;20044;-74
2021/12/05 06:42:09;;;;;;;33.20;17.67;;;;;;;2.73;56.14;98855.31;5079364;28;20523;-72
2021/12/05 06:47:25;;;;;;;31.08;17.42;;;;;;;2.82;56.02;98857.31;5079285;28;20067;-71
2021/12/05 06:49:54;;;;;;;39.55;19.92;;;;;;;2.81;55.96;98855.66;5080349;28;20134;-73
2021/12/05 06:52:22;;;;;;;30.10;17.00;;;;;;;2.79;56.13;98854.94;5074946;28;20087;-75
2021/12/05 06:54:49;;;;;;;27.73;16.17;;;;;;;2.81;56.09;98860.03;5067030;28;20049;-73
2021/12/05 06:57:16;;;;;;;35.78;20.20;;;;;;;2.78;56.36;98865.44;5067327;28;20075;-70
2021/12/05 06:59:45;;;;;;;28.20;14.88;;;;;;;2.79;56.33;98872.31;5065728;28;20565;-72
2021/12/05 07:02:15;;;;;;;33.15;17.45;;;;;;;2.80;56.13;98874.84;5065771;28;20140;-72
2021/12/05 07:07:29;;;;;;;27.65;16.10;;;;;;;2.89;56.06;98872.59;5063420;28;20053;-73
2021/12/05 07:09:56;;;;;;;28.23;15.82;;;;;;;2.82;56.02;98878.19;5066979;28;20117;-74
2021/12/05 07:13:06;;;;;;;29.80;15.50;;;;;;;2.83;55.98;98869.44;5069235;28;20048;-74
2021/12/05 07:15:43;;;;;;;;;;;;;;;3.09;55.51;98879.16;5067961;28;20129;-73
2021/12/05 07:23:49;;;;;;;35.53;18.20;;;;;;;3.02;55.75;98878.69;5062948;28;20666;-72
2021/12/05 07:26:23;;;;;;;27.45;14.65;;;;;;;3.05;55.76;98883.72;5065599;28;20095;-71
2021/12/05 07:42:40;;;;;;;36.13;19.48;;;;;;;3.23;55.53;98926.09;5063906;28;19969;-71
2021/12/05 07:45:10;;;;;;;33.55;17.75;;;;;;;3.27;55.65;98919.72;5063725;28;20086;-72
2021/12/05 07:47:40;;;;;;;31.63;17.52;;;;;;;3.25;55.58;98927.66;5063507;28;20114;-73
2021/12/05 07:50:10;;;;;;;26.55;16.85;;;;;;;3.21;55.74;98920.97;5063170;28;20049;-72
2021/12/05 07:52:41;;;;;;;26.52;15.90;;;;;;;3.28;55.59;98928.38;5062562;28;20054;-71
2021/12/05 07:55:16;;;;;;;35.55;19.45;;;;;;;3.30;55.69;98936.97;5063048;28;20044;-72
2021/12/05 07:57:58;;;;;;;30.53;18.97;;;;;;;3.36;55.59;98932.19;5063206;28;20575;-73
2021/12/05 08:00:32;;;;;;;32.35;17.75;;;;;;;3.39;55.71;98939.81;5061970;28;20140;-73
2021/12/05 08:16:47;;;;;;;29.38;17.63;;;;;;;3.48;55.51;98946.22;5065369;28;20105;-73
2021/12/05 08:19:14;;;;;;;33.70;15.60;;;;;;;3.53;55.53;98948.53;5065814;28;20136;-72
2021/12/05 08:21:41;;;;;;;33.47;18.02;;;;;;;3.54;55.28;98943.22;5064318;28;20045;-73
2021/12/05 08:24:10;;;;;;;31.23;16.70;;;;;;;3.61;55.60;98944.50;5065878;28;20040;-74
2021/12/05 08:26:37;;;;;;;29.77;17.63;;;;;;;3.66;55.31;98946.00;5064318;28;20049;-74
2021/12/05 08:29:12;;;;;;;35.05;19.60;;;;;;;3.64;55.46;98949.53;5062728;28;20041;-74
2021/12/05 08:32:08;;;;;;;33.53;20.00;;;;;;;3.61;55.37;98948.88;5065677;28;20040;-77
2021/12/05 08:38:09;;;;;;;26.30;15.88;;;;;;;3.63;55.35;98944.41;5045765;28;20045;-75
2021/12/05 08:43:43;;;;;;;26.20;13.10;;;;;;;3.54;55.36;98951.03;5054128;28;20041;-71
2021/12/05 09:25:25;;;;;;;31.35;16.45;;;;;;;3.84;55.14;98981.34;5001942;28;20042;-72
2021/12/05 09:30:56;;;;;;;33.67;17.55;;;;;;;3.71;55.61;98981.31;4899736;29;20051;-77
2021/12/05 09:39:39;;;;;;;28.95;15.23;;;;;;;3.22;56.54;98967.00;4902402;29;20136;-76
2021/12/05 10:07:02;;;;;;;34.78;18.25;;;;;;;2.90;57.26;98948.13;4900174;28;20066;-73
2021/12/05 10:09:56;;;;;;;40.35;21.88;;;;;;;2.92;57.53;98945.41;4977634;28;20050;-74
2021/12/05 10:15:25;;;;;;;33.67;19.20;;;;;;;2.99;57.65;98941.50;4980427;28;20148;-77
2021/12/05 10:26:44;;;;;;;44.83;22.50;;;;;;;2.86;58.24;98950.09;4952573;28;20110;-75
2021/12/05 10:37:49;;;;;;;51.10;28.08;;;;;;;3.12;58.09;98947.63;4975443;28;20050;-76
2021/12/05 10:40:21;;;;;;;44.97;25.50;;;;;;;3.17;58.11;98942.97;5008171;28;20046;-75
2021/12/05 10:42:54;;;;;;;59.13;32.13;;;;;;;3.17;58.19;98944.72;5008784;28;20061;-81
2021/12/05 10:45:34;;;;;;;85.00;36.55;;;;;;;3.15;58.33;98947.44;5013486;28;20137;-75
2021/12/05 10:48:14;;;;;;;67.50;33.88;;;;;;;3.17;58.25;98940.34;5012567;28;20682;-78
2021/12/05 10:50:45;;;;;;;54.08;26.35;;;;;;;3.23;58.49;98950.41;5006604;28;20065;-82
2021/12/05 10:53:39;;;;;;;47.70;24.58;;;;;;;3.25;58.45;98947.69;4989748;28;20206;-76
2021/12/05 10:56:17;;;;;;;56.00;26.75;;;;;;;3.22;58.45;98953.09;5013578;28;20104;-77
2021/12/05 10:58:50;;;;;;;54.97;30.48;;;;;;;3.25;58.49;98953.75;5044520;28;20071;-76
2021/12/05 11:01:22;;;;;;;41.20;21.75;;;;;;;3.24;58.45;98946.00;5066868;28;20810;-79
2021/12/05 11:03:52;;;;;;;40.20;22.63;;;;;;;3.19;58.63;98951.53;5070262;28;20661;-79
2021/12/05 11:06:32;;;;;;;46.83;21.33;;;;;;;3.25;58.69;98955.53;5063343;28;20048;-79
2021/12/05 11:09:04;;;;;;;38.88;22.38;;;;;;;3.30;58.50;98945.63;5065326;28;20123;-83
2021/12/05 11:11:31;;;;;;;30.27;19.85;;;;;;;3.33;58.63;98936.75;5060688;28;20037;-77
2021/12/05 11:14:01;;;;;;;39.15;20.25;;;;;;;3.30;58.70;98945.63;5060731;28;20045;-77
2021/12/05 11:16:38;;;;;;;36.42;21.23;;;;;;;3.32;58.59;98945.53;5059259;28;20052;-75
2021/12/05 11:19:11;;;;;;;35.67;18.52;;;;;;;3.25;58.78;98934.66;5058569;28;20131;-76
2021/12/05 11:21:46;;;;;;;35.50;18.88;;;;;;;3.23;58.76;98939.97;5060981;28;20127;-79
2021/12/05 11:24:20;;;;;;;35.55;20.45;;;;;;;3.27;58.82;98929.34;5058888;28;20044;-75
2021/12/05 11:27:12;;;;;;;45.03;23.38;;;;;;;3.27;58.85;98929.34;5058050;28;20127;-75
2021/12/05 11:29:59;;;;;;;40.95;24.15;;;;;;;3.28;58.97;98929.25;5061080;28;20545;-74
2021/12/05 11:32:33;;;;;;;49.33;22.98;;;;;;;3.28;58.76;98925.78;5045200;28;20068;-75
2021/12/05 11:35:22;;;;;;;47.80;26.30;;;;;;;3.29;58.83;98927.47;5052056;28;20057;-81
2021/12/05 11:37:52;;;;;;;47.90;23.38;;;;;;;3.29;58.80;98927.47;5047953;28;20049;-77
2021/12/05 11:40:21;;;;;;;44.75;22.90;;;;;;;3.29;58.77;98917.03;5050589;28;20239;-77
2021/12/05 11:42:59;;;;;;;36.00;20.42;;;;;;;3.32;59.04;98927.28;5052120;28;20061;-76
2021/12/05 11:45:27;;;;;;;38.38;21.25;;;;;;;3.35;58.98;98920.09;5048850;28;20052;-79
2021/12/05 11:47:54;;;;;;;37.80;19.60;;;;;;;3.39;58.97;98928.56;5045218;28;20048;-75
2021/12/05 11:50:31;;;;;;;35.00;21.98;;;;;;;3.47;58.91;98931.50;5037914;28;20067;-76
2021/12/05 11:53:00;;;;;;;35.10;20.02;;;;;;;3.53;58.85;98933.72;5039068;28;20673;-76
2021/12/05 11:55:31;;;;;;;35.97;18.33;;;;;;;3.55;58.85;98942.28;5039806;28;20049;-77
2021/12/05 11:57:59;;;;;;;32.83;19.60;;;;;;;3.55;58.81;98939.69;5038120;28;20049;-75
2021/12/05 12:00:28;;;;;;;43.92;21.05;;;;;;;3.60;58.98;98928.91;5038514;28;20125;-74
2021/12/05 12:02:55;;;;;;;38.78;21.88;;;;;;;3.62;58.88;98933.13;5039291;28;20528;-77
2021/12/05 12:05:24;;;;;;;28.25;17.50;;;;;;;3.66;58.83;98939.00;5038132;28;20052;-74
2021/12/05 12:08:00;;;;;;;36.72;20.70;;;;;;;3.69;58.79;98935.31;5034389;28;20055;-76
2021/12/05 12:10:32;;;;;;;30.25;19.00;;;;;;;3.73;58.94;98934.22;5039075;28;20049;-75
2021/12/05 12:13:02;;;;;;;45.78;27.92;;;;;;;3.70;58.95;98931.78;5038003;28;20126;-74
2021/12/05 12:15:30;;;;;;;33.58;19.88;;;;;;;3.73;58.80;98932.44;5037288;28;20051;-76
2021/12/05 12:18:06;;;;;;;40.40;21.60;;;;;;;3.72;58.79;98928.13;5038767;28;20052;-75
2021/12/05 12:20:34;;;;;;;40.50;24.38;;;;;;;3.70;58.72;98935.22;5038495;28;20087;-75
2021/12/05 12:23:02;;;;;;;39.42;19.98;;;;;;;3.67;58.72;98930.19;5036256;28;20083;-74
2021/12/05 12:25:32;;;;;;;37.97;22.25;;;;;;;3.61;58.96;98951.50;5038470;28;20049;-77
2021/12/05 12:28:00;;;;;;;40.85;20.75;;;;;;;3.51;58.90;98951.25;5039759;28;20045;-72
2021/12/05 12:30:31;;;;;;;37.92;20.05;;;;;;;3.44;58.91;98944.75;5006943;28;20266;-77
2021/12/05 12:33:05;;;;;;;36.65;22.23;;;;;;;3.41;59.11;98947.56;5038184;28;20149;-75
2021/12/05 12:35:34;;;;;;;39.95;19.98;;;;;;;3.42;58.99;98949.22;5040613;28;20047;-77
2021/12/05 12:38:06;;;;;;;39.00;19.42;;;;;;;3.42;59.02;98954.44;5037075;28;20060;-79
2021/12/05 12:40:43;;;;;;;43.08;24.05;;;;;;;3.38;59.03;98955.56;5042135;28;20052;-78
2021/12/05 12:43:32;;;;;;;41.90;20.52;;;;;;;3.41;59.03;98968.44;5039982;28;20225;-78
2021/12/05 12:46:14;;;;;;;35.80;21.92;;;;;;;3.41;58.84;98968.44;5040937;28;20064;-83
2021/12/05 12:48:42;;;;;;;35.15;19.45;;;;;;;3.40;58.89;98978.06;5042087;28;20148;-79
2021/12/05 12:51:09;;;;;;;35.70;19.50;;;;;;;3.38;59.00;98973.84;5041567;28;20048;-77
2021/12/05 12:53:38;;;;;;;37.10;20.70;;;;;;;3.37;58.83;98972.19;5039790;28;20048;-77
2021/12/05 12:56:18;;;;;;;45.95;22.45;;;;;;;3.40;58.97;98979.81;5037464;28;20112;-77
2021/12/05 12:58:49;;;;;;;34.78;19.33;;;;;;;3.37;58.94;98982.63;5040457;28;20053;-77
2021/12/05 13:04:49;;;;;;;41.47;19.13;;;;;;;3.35;58.95;98984.47;4975854;28;20099;-78
2021/12/05 13:10:29;;;;;;;33.67;19.48;;;;;;;3.34;58.90;98994.09;4979728;28;20104;-78
2021/12/05 13:13:15;;;;;;;30.60;19.17;;;;;;;3.40;58.82;98998.94;4978987;28;20058;-77
2021/12/05 13:15:47;;;;;;;35.97;19.23;;;;;;;3.35;58.93;99001.00;4977503;28;20305;-77
2021/12/05 13:18:23;;;;;;;32.33;19.42;;;;;;;3.29;58.94;99001.34;4977695;28;20206;-76
2021/12/05 13:20:56;;;;;;;41.17;20.05;;;;;;;3.29;58.97;98998.75;4978809;28;20064;-75
2021/12/05 13:23:36;;;;;;;36.45;20.67;;;;;;;3.27;58.95;99002.41;4978495;28;20046;-78
2021/12/05 13:26:26;;;;;;;36.83;19.38;;;;;;;3.26;58.92;99001.56;4976605;28;20081;-77
2021/12/05 13:28:57;;;;;;;32.88;20.30;;;;;;;3.24;58.82;99004.28;4976087;28;20437;-74
2021/12/05 13:31:46;;;;;;;37.38;18.40;;;;;;;3.18;59.02;99004.63;4980426;28;20078;-77
2021/12/05 13:34:20;;;;;;;34.90;17.98;;;;;;;3.17;58.96;99008.19;4980146;28;20078;-75
2021/12/05 13:36:51;;;;;;;32.42;18.65;;;;;;;3.13;59.25;99009.28;4975722;28;20101;-73
2021/12/05 13:39:34;;;;;;;38.25;21.88;;;;;;;3.16;59.22;99008.28;4979102;28;20054;-79
2021/12/05 13:42:05;;;;;;;38.05;20.90;;;;;;;3.16;59.04;99006.50;5023973;28;20102;-74
2021/12/05 13:45:05;;;;;;;41.38;22.35;;;;;;;3.19;59.19;99011.53;5038408;28;20049;-76
2021/12/05 13:47:39;;;;;;;39.10;21.65;;;;;;;3.18;58.95;99009.84;5037245;28;20079;-77
2021/12/05 13:50:31;;;;;;;43.63;21.42;;;;;;;3.19;59.21;99015.94;5039024;28;20097;-74
2021/12/05 13:53:14;;;;;;;40.67;21.02;;;;;;;3.15;59.23;99009.22;5042164;28;20461;-75
2021/12/05 13:55:43;;;;;;;41.33;21.52;;;;;;;3.15;59.37;99009.22;5040241;28;20061;-73
2021/12/05 13:58:29;;;;;;;41.10;21.33;;;;;;;3.15;59.33;99011.81;5039526;28;20075;-75
2021/12/05 14:01:01;;;;;;;45.88;23.67;;;;;;;3.16;59.11;99009.13;5039541;28;20052;-78
2021/12/05 14:04:09;;;;;;;43.25;22.77;;;;;;;3.14;59.35;99003.16;5047767;28;20121;-79
2021/12/05 14:06:39;;;;;;;38.42;21.65;;;;;;;3.10;59.34;98996.47;5039463;28;20076;-74
2021/12/05 14:09:14;;;;;;;44.75;23.30;;;;;;;3.10;59.51;99003.44;5041566;28;20055;-76
2021/12/05 14:11:46;;;;;;;46.93;24.63;;;;;;;3.08;59.42;99000.09;5044443;28;20607;-78
2021/12/05 14:14:16;;;;;;;43.40;24.40;;;;;;;3.07;59.49;99009.69;5042705;28;20953;-77
2021/12/05 14:16:48;;;;;;;45.20;23.02;;;;;;;3.07;59.55;99012.28;5045160;28;20186;-74
2021/12/05 14:19:19;;;;;;;43.40;21.90;;;;;;;3.07;59.67;99022.72;5047556;28;20071;-76
2021/12/05 14:21:48;;;;;;;47.53;25.13;;;;;;;3.05;59.61;99022.81;5053176;28;20224;-77
2021/12/05 14:24:17;;;;;;;52.30;26.25;;;;;;;3.05;59.75;99027.22;5047613;28;20045;-79
2021/12/05 14:26:45;;;;;;;43.85;24.67;;;;;;;3.04;59.75;99030.72;5049139;28;20091;-78
2021/12/05 14:29:17;;;;;;;47.05;25.23;;;;;;;3.00;59.95;99017.03;5047764;28;20131;-77
2021/12/05 14:31:47;;;;;;;47.30;27.42;;;;;;;2.95;60.09;99019.09;5042146;28;20506;-72
2021/12/05 14:34:16;;;;;;;49.35;25.38;;;;;;;2.95;60.05;99033.91;5047776;28;20053;-77
2021/12/05 14:36:47;;;;;;;49.15;25.08;;;;;;;2.92;59.99;99024.50;5050309;28;20067;-80
2021/12/05 14:39:19;;;;;;;48.67;27.27;;;;;;;2.94;59.90;99032.25;5051505;28;20108;-75
2021/12/05 14:41:53;;;;;;;51.58;27.85;;;;;;;2.92;60.26;99031.47;5053769;28;20796;-77
2021/12/05 14:44:21;;;;;;;59.58;27.70;;;;;;;2.89;60.01;99034.28;5052968;28;20064;-79
2021/12/05 14:46:51;;;;;;;54.85;29.02;;;;;;;2.89;60.23;99042.94;5047990;28;20103;-76
2021/12/05 14:49:21;;;;;;;50.95;25.67;;;;;;;2.91;60.13;99050.69;5047170;28;20132;-76
2021/12/05 14:51:49;;;;;;;55.33;29.63;;;;;;;2.93;60.10;99064.47;5049057;28;20682;-76
2021/12/05 14:54:22;;;;;;;52.45;26.20;;;;;;;2.92;60.43;99057.56;5052875;28;20073;-78
2021/12/05 14:56:50;;;;;;;53.17;28.58;;;;;;;2.87;60.19;99044.81;5051444;28;20103;-77
2021/12/05 14:59:20;;;;;;;52.45;28.15;;;;;;;2.91;60.46;99055.91;5052496;28;20086;-76
2021/12/05 15:01:53;;;;;;;52.28;29.17;;;;;;;2.92;60.42;99065.38;5051991;28;20069;-79
2021/12/05 15:04:25;;;;;;;51.83;26.90;;;;;;;2.92;60.56;99060.16;5041947;28;20086;-78
2021/12/05 15:06:53;;;;;;;50.65;26.77;;;;;;;2.92;60.40;99063.63;5042786;28;20234;-77
2021/12/05 15:09:29;;;;;;;48.03;27.17;;;;;;;2.92;60.42;99060.16;5044353;28;20150;-77
2021/12/05 15:11:57;;;;;;;;;;;;;;;3.09;59.99;99054.78;5046951;28;20545;-75
2021/12/05 15:14:26;;;;;;;48.58;25.95;;;;;;;2.91;60.04;99050.69;5049898;28;19970;-78
2021/12/05 15:16:55;;;;;;;60.42;32.03;;;;;;;2.84;60.44;99048.41;5046509;28;20520;-77
2021/12/05 15:19:25;;;;;;;83.72;37.78;;;;;;;2.83;60.68;99058.97;5049979;28;20136;-79
2021/12/05 15:21:53;;;;;;;83.80;38.33;;;;;;;2.77;60.33;99049.72;5048112;28;20044;-80
2021/12/05 15:24:25;;;;;;;90.70;41.42;;;;;;;2.78;60.66;99058.41;5050708;28;20377;-78
2021/12/05 15:26:54;;;;;;;76.57;38.35;;;;;;;2.80;60.59;99059.16;5049940;28;20049;-76
2021/12/05 15:29:21;;;;;;;72.18;35.25;;;;;;;2.79;60.80;99067.88;5044370;28;20460;-74
2021/12/05 15:31:48;;;;;;;83.32;38.85;;;;;;;2.80;60.99;99059.97;5045259;28;20481;-75
2021/12/05 15:34:25;;;;;;;74.45;36.58;;;;;;;2.84;60.71;99069.28;5042039;28;20051;-73
2021/12/05 15:36:53;;;;;;;76.75;35.28;;;;;;;2.80;60.71;99065.19;5037256;28;20156;-75
2021/12/05 15:39:23;;;;;;;82.38;36.97;;;;;;;2.76;60.77;99055.06;5039269;28;20045;-75
2021/12/05 15:41:52;;;;;;;63.08;34.22;;;;;;;2.76;60.87;99065.47;5049689;28;20057;-76
2021/12/05 15:44:28;;;;;;;65.32;33.33;;;;;;;2.74;61.14;99060.34;5044410;28;20049;-74
2021/12/05 15:47:20;;;;;;;62.08;31.58;;;;;;;2.75;61.04;99069.00;5055408;28;20077;-78
2021/12/05 15:50:10;;;;;;;66.28;32.25;;;;;;;2.75;61.03;99074.22;5051740;28;20104;-78
2021/12/05 15:55:38;;;;;;;;;;;;;;;2.94;60.30;99074.81;5043744;28;20049;-72
2021/12/05 15:58:08;;;;;;;59.42;30.58;;;;;;;2.78;60.73;99077.47;5041152;28;19927;-74
2021/12/05 16:00:39;;;;;;;69.18;33.28;;;;;;;2.78;60.83;99080.09;5040906;28;20049;-73
2021/12/05 16:03:09;;;;;;;60.08;30.85;;;;;;;2.75;60.80;99082.88;5042092;28;20055;-71
2021/12/05 16:05:40;;;;;;;63.28;30.13;;;;;;;2.72;61.15;99085.69;5045419;28;20156;-71
2021/12/05 16:08:09;;;;;;;67.38;32.78;;;;;;;2.72;61.18;99079.59;5041687;28;20052;-74
2021/12/05 16:10:39;;;;;;;69.53;34.83;;;;;;;2.71;61.05;99081.38;5042579;28;20136;-74
2021/12/05 16:13:12;;;;;;;69.60;35.78;;;;;;;2.70;61.15;99087.50;5041627;28;20116;-75
2021/12/05 16:15:40;;;;;;;67.53;34.88;;;;;;;2.67;61.40;99087.72;5041226;28;20041;-71